sensor_id;sensor_type;location;lat;lon;timestamp;P1;P2;P0
27143;PMS1003;14672;50.250;8.312;2023-02-25T00:01:23;13.75;13.75;5.00
27143;PMS1003;14672;50.250;8.312;2023-02-25T00:03:53;17.00;15.50;5.50
27143;PMS1003;14672;50.250;8.312;2023-02-25T00:06:20;13.00;11.75;4.25
27143;PMS1003;14672;50.250;8.312;2023-02-25T00:08:47;17.75;17.00;6.00
27143;PMS1003;14672;50.250;8.312;2023-02-25T00:11:15;15.25;15.25;3.75
27143;PMS1003;14672;50.250;8.312;2023-02-25T00:13:43;16.75;14.25;4.50
27143;PMS1003;14672;50.250;8.312;2023-02-25T00:16:10;17.50;15.75;5.75
27143;PMS1003;14672;50.250;8.312;2023-02-25T00:18:37;13.00;13.00;4.00
27143;PMS1003;14672;50.250;8.312;2023-02-25T00:21:05;19.75;17.75;6.75
27143;PMS1003;14672;50.250;8.312;2023-02-25T00:23:40;12.25;12.25;3.75
27143;PMS1003;14672;50.250;8.312;2023-02-25T00:26:07;17.75;15.75;5.75
27143;PMS1003;14672;50.250;8.312;2023-02-25T00:28:33;14.00;14.00;6.00
27143;PMS1003;14672;50.250;8.312;2023-02-25T00:31:04;16.50;13.75;4.50
27143;PMS1003;14672;50.250;8.312;2023-02-25T00:33:32;18.25;14.75;7.25
27143;PMS1003;14672;50.250;8.312;2023-02-25T00:35:57;19.00;17.00;5.33
27143;PMS1003;14672;50.250;8.312;2023-02-25T00:38:23;11.67;11.67;6.00
27143;PMS1003;14672;50.250;8.312;2023-02-25T00:40:49;16.00;16.00;7.67
27143;PMS1003;14672;50.250;8.312;2023-02-25T00:43:15;26.00;19.33;8.33
27143;PMS1003;14672;50.250;8.312;2023-02-25T00:45:41;17.67;16.00;7.67
27143;PMS1003;14672;50.250;8.312;2023-02-25T00:48:06;18.33;18.00;6.00
27143;PMS1003;14672;50.250;8.312;2023-02-25T00:50:33;20.75;17.00;7.75
27143;PMS1003;14672;50.250;8.312;2023-02-25T00:52:59;18.25;16.75;5.75
27143;PMS1003;14672;50.250;8.312;2023-02-25T00:55:25;17.75;16.25;5.75
27143;PMS1003;14672;50.250;8.312;2023-02-25T00:58:00;20.50;16.00;6.50
27143;PMS1003;14672;50.250;8.312;2023-02-25T01:00:26;12.25;12.25;3.75
27143;PMS1003;14672;50.250;8.312;2023-02-25T01:02:54;18.75;17.25;5.75
27143;PMS1003;14672;50.250;8.312;2023-02-25T01:05:22;13.75;13.75;4.50
27143;PMS1003;14672;50.250;8.312;2023-02-25T01:07:48;25.00;20.50;7.75
27143;PMS1003;14672;50.250;8.312;2023-02-25T01:10:14;12.00;11.67;4.00
27143;PMS1003;14672;50.250;8.312;2023-02-25T01:12:40;14.75;14.75;5.25
27143;PMS1003;14672;50.250;8.312;2023-02-25T01:15:06;13.00;12.00;4.00
27143;PMS1003;14672;50.250;8.312;2023-02-25T01:17:33;17.75;15.75;7.25
27143;PMS1003;14672;50.250;8.312;2023-02-25T01:19:59;15.33;14.00;5.67
27143;PMS1003;14672;50.250;8.312;2023-02-25T01:22:24;17.67;16.33;6.00
27143;PMS1003;14672;50.250;8.312;2023-02-25T01:24:53;19.00;13.00;3.75
27143;PMS1003;14672;50.250;8.312;2023-02-25T01:27:20;22.00;18.25;6.50
27143;PMS1003;14672;50.250;8.312;2023-02-25T01:29:45;17.00;17.00;7.67
27143;PMS1003;14672;50.250;8.312;2023-02-25T01:32:12;17.67;15.67;4.00
27143;PMS1003;14672;50.250;8.312;2023-02-25T01:34:38;16.25;14.50;5.75
27143;PMS1003;14672;50.250;8.312;2023-02-25T01:37:05;15.75;15.75;5.50
27143;PMS1003;14672;50.250;8.312;2023-02-25T01:39:31;16.00;13.75;3.75
27143;PMS1003;14672;50.250;8.312;2023-02-25T01:41:58;14.50;14.50;7.50
27143;PMS1003;14672;50.250;8.312;2023-02-25T01:44:38;18.75;17.75;7.25
27143;PMS1003;14672;50.250;8.312;2023-02-25T01:47:41;21.25;17.75;5.75
27143;PMS1003;14672;50.250;8.312;2023-02-25T01:50:36;17.25;14.25;3.75
27143;PMS1003;14672;50.250;8.312;2023-02-25T01:53:27;17.75;16.00;5.75
27143;PMS1003;14672;50.250;8.312;2023-02-25T01:56:01;18.50;16.50;6.50
27143;PMS1003;14672;50.250;8.312;2023-02-25T01:58:28;17.75;15.75;5.75
27143;PMS1003;14672;50.250;8.312;2023-02-25T02:00:55;21.75;15.75;6.50
27143;PMS1003;14672;50.250;8.312;2023-02-25T02:03:25;22.00;18.67;6.00
27143;PMS1003;14672;50.250;8.312;2023-02-25T02:08:40;16.50;15.75;4.25
27143;PMS1003;14672;50.250;8.312;2023-02-25T02:11:08;15.00;14.25;5.75
27143;PMS1003;14672;50.250;8.312;2023-02-25T02:13:35;15.25;12.75;6.25
27143;PMS1003;14672;50.250;8.312;2023-02-25T02:16:20;15.25;13.00;3.50
27143;PMS1003;14672;50.250;8.312;2023-02-25T02:19:20;19.75;17.75;5.25
27143;PMS1003;14672;50.250;8.312;2023-02-25T02:21:58;20.25;15.25;3.75
27143;PMS1003;14672;50.250;8.312;2023-02-25T02:39:16;23.50;18.50;4.50
27143;PMS1003;14672;50.250;8.312;2023-02-25T02:45:42;14.00;13.50;3.50
27143;PMS1003;14672;50.250;8.312;2023-02-25T02:48:17;20.00;18.00;6.00
27143;PMS1003;14672;50.250;8.312;2023-02-25T02:50:55;14.75;14.25;5.75
27143;PMS1003;14672;50.250;8.312;2023-02-25T02:53:30;19.50;17.25;5.75
27143;PMS1003;14672;50.250;8.312;2023-02-25T02:56:03;14.25;13.75;3.75
27143;PMS1003;14672;50.250;8.312;2023-02-25T02:58:52;15.50;14.25;5.75
27143;PMS1003;14672;50.250;8.312;2023-02-25T03:01:26;11.00;11.00;2.50
27143;PMS1003;14672;50.250;8.312;2023-02-25T03:03:58;18.50;18.50;6.75
27143;PMS1003;14672;50.250;8.312;2023-02-25T03:06:32;15.50;14.25;4.25
27143;PMS1003;14672;50.250;8.312;2023-02-25T03:11:36;12.25;11.75;3.75
27143;PMS1003;14672;50.250;8.312;2023-02-25T03:14:02;15.67;13.67;5.00
27143;PMS1003;14672;50.250;8.312;2023-02-25T03:20:25;14.00;14.00;7.00
27143;PMS1003;14672;50.250;8.312;2023-02-25T03:22:47;26.00;19.50;5.50
27143;PMS1003;14672;50.250;8.312;2023-02-25T03:25:25;16.00;15.75;6.25
27143;PMS1003;14672;50.250;8.312;2023-02-25T03:28:03;17.00;15.50;6.50
27143;PMS1003;14672;50.250;8.312;2023-02-25T03:30:55;25.50;18.50;6.50
27143;PMS1003;14672;50.250;8.312;2023-02-25T03:33:40;21.75;19.00;5.50
27143;PMS1003;14672;50.250;8.312;2023-02-25T03:36:47;21.75;18.50;5.75
27143;PMS1003;14672;50.250;8.312;2023-02-25T03:39:33;15.00;15.00;6.50
27143;PMS1003;14672;50.250;8.312;2023-02-25T03:42:04;15.75;14.25;5.75
27143;PMS1003;14672;50.250;8.312;2023-02-25T03:44:47;20.50;16.75;5.75
27143;PMS1003;14672;50.250;8.312;2023-02-25T03:47:19;15.25;13.75;4.50
27143;PMS1003;14672;50.250;8.312;2023-02-25T03:49:50;12.75;12.75;5.50
27143;PMS1003;14672;50.250;8.312;2023-02-25T03:52:32;16.25;16.25;5.50
27143;PMS1003;14672;50.250;8.312;2023-02-25T03:54:59;27.00;21.00;6.50
27143;PMS1003;14672;50.250;8.312;2023-02-25T03:57:26;23.75;19.25;5.75
27143;PMS1003;14672;50.250;8.312;2023-02-25T04:00:06;18.50;17.50;6.25
27143;PMS1003;14672;50.250;8.312;2023-02-25T04:02:46;13.50;13.50;5.75
27143;PMS1003;14672;50.250;8.312;2023-02-25T04:05:12;14.25;13.75;5.00
27143;PMS1003;14672;50.250;8.312;2023-02-25T04:07:39;21.75;19.75;9.00
27143;PMS1003;14672;50.250;8.312;2023-02-25T04:10:06;21.33;18.67;6.00
27143;PMS1003;14672;50.250;8.312;2023-02-25T04:12:35;24.75;22.25;7.75
27143;PMS1003;14672;50.250;8.312;2023-02-25T04:15:01;20.67;16.00;5.67
27143;PMS1003;14672;50.250;8.312;2023-02-25T04:17:27;19.75;15.75;5.75
27143;PMS1003;14672;50.250;8.312;2023-02-25T04:19:53;24.00;20.00;9.33
27143;PMS1003;14672;50.250;8.312;2023-02-25T04:22:19;20.67;18.67;7.67
27143;PMS1003;14672;50.250;8.312;2023-02-25T04:24:45;26.00;16.00;7.67
27143;PMS1003;14672;50.250;8.312;2023-02-25T04:27:11;28.67;21.67;7.33
27143;PMS1003;14672;50.250;8.312;2023-02-25T04:29:39;21.00;17.50;6.50
27143;PMS1003;14672;50.250;8.312;2023-02-25T04:32:06;20.25;14.75;4.00
27143;PMS1003;14672;50.250;8.312;2023-02-25T04:34:32;17.50;16.25;5.75
27143;PMS1003;14672;50.250;8.312;2023-02-25T04:36:58;20.67;20.00;6.33
27143;PMS1003;14672;50.250;8.312;2023-02-25T04:39:26;15.75;13.75;5.25
27143;PMS1003;14672;50.250;8.312;2023-02-25T04:41:52;21.25;20.75;7.75
27143;PMS1003;14672;50.250;8.312;2023-02-25T04:44:18;17.00;15.75;6.50
27143;PMS1003;14672;50.250;8.312;2023-02-25T04:46:45;16.00;14.00;6.00
27143;PMS1003;14672;50.250;8.312;2023-02-25T04:49:15;17.75;15.00;5.25
27143;PMS1003;14672;50.250;8.312;2023-02-25T04:51:46;19.25;16.25;5.00
27143;PMS1003;14672;50.250;8.312;2023-02-25T04:54:15;15.75;14.25;4.25
27143;PMS1003;14672;50.250;8.312;2023-02-25T04:56:42;19.75;15.75;4.75
27143;PMS1003;14672;50.250;8.312;2023-02-25T04:59:11;14.75;13.75;5.75
27143;PMS1003;14672;50.250;8.312;2023-02-25T05:01:38;18.75;15.00;5.75
27143;PMS1003;14672;50.250;8.312;2023-02-25T05:04:04;15.75;14.25;3.75
27143;PMS1003;14672;50.250;8.312;2023-02-25T05:06:30;14.00;14.00;6.67
27143;PMS1003;14672;50.250;8.312;2023-02-25T05:08:57;17.75;16.25;5.75
27143;PMS1003;14672;50.250;8.312;2023-02-25T05:11:24;17.75;17.75;5.75
27143;PMS1003;14672;50.250;8.312;2023-02-25T05:13:52;14.25;13.25;3.75
27143;PMS1003;14672;50.250;8.312;2023-02-25T05:16:21;14.25;14.25;4.75
27143;PMS1003;14672;50.250;8.312;2023-02-25T05:18:47;23.00;13.75;3.75
27143;PMS1003;14672;50.250;8.312;2023-02-25T05:21:14;14.33;14.00;6.00
27143;PMS1003;14672;50.250;8.312;2023-02-25T05:23:46;18.75;17.50;5.75
27143;PMS1003;14672;50.250;8.312;2023-02-25T05:26:14;19.75;16.25;5.75
27143;PMS1003;14672;50.250;8.312;2023-02-25T05:28:42;18.75;15.25;6.25
27143;PMS1003;14672;50.250;8.312;2023-02-25T05:31:09;22.00;20.00;7.00
27143;PMS1003;14672;50.250;8.312;2023-02-25T05:33:37;20.50;14.50;3.00
27143;PMS1003;14672;50.250;8.312;2023-02-25T05:36:07;18.25;15.75;5.00
27143;PMS1003;14672;50.250;8.312;2023-02-25T05:38:35;18.25;18.25;7.50
27143;PMS1003;14672;50.250;8.312;2023-02-25T05:41:02;16.75;16.25;7.50
27143;PMS1003;14672;50.250;8.312;2023-02-25T05:43:32;20.50;18.00;7.00
27143;PMS1003;14672;50.250;8.312;2023-02-25T05:46:00;20.25;17.25;5.25
27143;PMS1003;14672;50.250;8.312;2023-02-25T05:48:27;24.25;21.25;7.75
27143;PMS1003;14672;50.250;8.312;2023-02-25T05:51:01;26.75;24.00;11.50
27143;PMS1003;14672;50.250;8.312;2023-02-25T05:53:33;24.00;17.00;6.00
27143;PMS1003;14672;50.250;8.312;2023-02-25T05:56:02;19.33;16.67;6.00
27143;PMS1003;14672;50.250;8.312;2023-02-25T05:58:34;26.75;22.25;6.25
27143;PMS1003;14672;50.250;8.312;2023-02-25T06:01:04;19.75;17.75;7.75
27143;PMS1003;14672;50.250;8.312;2023-02-25T06:03:37;18.75;15.25;4.25
27143;PMS1003;14672;50.250;8.312;2023-02-25T06:06:05;17.25;13.25;3.75
27143;PMS1003;14672;50.250;8.312;2023-02-25T06:08:31;18.75;17.00;7.00
27143;PMS1003;14672;50.250;8.312;2023-02-25T06:10:59;17.25;16.25;5.75
27143;PMS1003;14672;50.250;8.312;2023-02-25T06:13:26;21.75;20.25;6.00
27143;PMS1003;14672;50.250;8.312;2023-02-25T06:15:52;24.00;20.67;6.33
27143;PMS1003;14672;50.250;8.312;2023-02-25T06:18:18;22.00;20.00;8.33
27143;PMS1003;14672;50.250;8.312;2023-02-25T06:20:44;24.75;19.75;7.75
27143;PMS1003;14672;50.250;8.312;2023-02-25T06:23:10;17.33;16.00;6.33
27143;PMS1003;14672;50.250;8.312;2023-02-25T06:25:36;22.00;19.67;8.00
27143;PMS1003;14672;50.250;8.312;2023-02-25T06:28:02;22.00;19.33;7.00
27143;PMS1003;14672;50.250;8.312;2023-02-25T06:30:28;19.50;15.75;5.75
27143;PMS1003;14672;50.250;8.312;2023-02-25T06:32:55;20.00;17.25;7.25
27143;PMS1003;14672;50.250;8.312;2023-02-25T06:35:22;21.25;18.75;7.00
27143;PMS1003;14672;50.250;8.312;2023-02-25T06:37:48;22.33;17.00;6.00
27143;PMS1003;14672;50.250;8.312;2023-02-25T06:40:19;17.25;14.50;5.50
27143;PMS1003;14672;50.250;8.312;2023-02-25T06:42:44;18.00;15.33;6.00
27143;PMS1003;14672;50.250;8.312;2023-02-25T06:45:10;20.00;18.00;6.67
27143;PMS1003;14672;50.250;8.312;2023-02-25T06:47:36;16.67;16.33;6.00
27143;PMS1003;14672;50.250;8.312;2023-02-25T06:50:02;19.00;14.00;6.00
27143;PMS1003;14672;50.250;8.312;2023-02-25T06:52:29;21.00;20.25;7.75
27143;PMS1003;14672;50.250;8.312;2023-02-25T06:54:55;20.75;12.75;5.75
27143;PMS1003;14672;50.250;8.312;2023-02-25T06:57:21;16.00;15.00;5.00
27143;PMS1003;14672;50.250;8.312;2023-02-25T06:59:47;16.33;16.33;6.00
27143;PMS1003;14672;50.250;8.312;2023-02-25T07:02:13;16.75;15.75;6.00
27143;PMS1003;14672;50.250;8.312;2023-02-25T07:04:39;16.25;16.25;6.00
27143;PMS1003;14672;50.250;8.312;2023-02-25T07:07:05;16.33;15.67;7.67
27143;PMS1003;14672;50.250;8.312;2023-02-25T07:09:31;22.50;21.50;6.75
27143;PMS1003;14672;50.250;8.312;2023-02-25T07:11:57;17.00;17.00;5.67
27143;PMS1003;14672;50.250;8.312;2023-02-25T07:14:23;19.67;19.67;7.00
27143;PMS1003;14672;50.250;8.312;2023-02-25T07:16:49;19.75;17.25;5.75
27143;PMS1003;14672;50.250;8.312;2023-02-25T07:19:16;25.75;20.75;9.25
27143;PMS1003;14672;50.250;8.312;2023-02-25T07:21:42;21.33;20.00;7.67
27143;PMS1003;14672;50.250;8.312;2023-02-25T07:24:09;18.75;18.00;9.25
27143;PMS1003;14672;50.250;8.312;2023-02-25T07:26:36;27.25;21.75;7.75
27143;PMS1003;14672;50.250;8.312;2023-02-25T07:29:03;22.75;20.75;7.75
27143;PMS1003;14672;50.250;8.312;2023-02-25T07:31:30;29.50;21.25;10.25
27143;PMS1003;14672;50.250;8.312;2023-02-25T07:33:58;21.25;19.75;8.25
27143;PMS1003;14672;50.250;8.312;2023-02-25T07:36:32;21.75;18.75;8.25
27143;PMS1003;14672;50.250;8.312;2023-02-25T07:39:08;19.50;19.00;5.75
27143;PMS1003;14672;50.250;8.312;2023-02-25T07:41:36;16.00;16.00;8.75
27143;PMS1003;14672;50.250;8.312;2023-02-25T07:44:02;21.75;18.25;7.75
27143;PMS1003;14672;50.250;8.312;2023-02-25T07:46:30;24.00;22.25;6.25
27143;PMS1003;14672;50.250;8.312;2023-02-25T07:48:56;26.25;23.00;11.75
27143;PMS1003;14672;50.250;8.312;2023-02-25T07:51:22;27.25;23.25;6.50
27143;PMS1003;14672;50.250;8.312;2023-02-25T07:53:50;27.75;24.25;9.75
27143;PMS1003;14672;50.250;8.312;2023-02-25T07:56:18;21.75;21.00;8.00
27143;PMS1003;14672;50.250;8.312;2023-02-25T07:58:46;28.50;24.25;11.25
27143;PMS1003;14672;50.250;8.312;2023-02-25T08:01:19;27.33;22.67;10.33
27143;PMS1003;14672;50.250;8.312;2023-02-25T08:03:57;18.25;16.75;7.75
27143;PMS1003;14672;50.250;8.312;2023-02-25T08:06:25;25.75;23.75;8.75
27143;PMS1003;14672;50.250;8.312;2023-02-25T08:08:51;31.25;26.25;11.75
27143;PMS1003;14672;50.250;8.312;2023-02-25T08:11:20;20.75;19.25;9.75
27143;PMS1003;14672;50.250;8.312;2023-02-25T08:13:48;32.25;23.75;10.50
27143;PMS1003;14672;50.250;8.312;2023-02-25T08:16:16;25.00;24.25;9.75
27143;PMS1003;14672;50.250;8.312;2023-02-25T08:18:43;28.25;24.25;10.25
27143;PMS1003;14672;50.250;8.312;2023-02-25T08:21:11;21.00;20.75;9.50
27143;PMS1003;14672;50.250;8.312;2023-02-25T08:23:42;22.25;20.25;9.50
27143;PMS1003;14672;50.250;8.312;2023-02-25T08:26:08;28.50;25.50;7.75
27143;PMS1003;14672;50.250;8.312;2023-02-25T08:28:35;27.25;25.00;9.50
27143;PMS1003;14672;50.250;8.312;2023-02-25T08:31:02;46.25;39.75;19.75
27143;PMS1003;14672;50.250;8.312;2023-02-25T08:33:30;29.25;26.25;11.75
27143;PMS1003;14672;50.250;8.312;2023-02-25T08:36:04;33.33;31.33;12.00
27143;PMS1003;14672;50.250;8.312;2023-02-25T08:38:36;31.25;25.25;9.75
27143;PMS1003;14672;50.250;8.312;2023-02-25T08:41:03;27.75;26.25;10.25
27143;PMS1003;14672;50.250;8.312;2023-02-25T08:43:30;53.50;46.75;23.00
27143;PMS1003;14672;50.250;8.312;2023-02-25T08:45:57;34.50;28.25;13.25
27143;PMS1003;14672;50.250;8.312;2023-02-25T08:48:23;32.00;28.00;13.67
27143;PMS1003;14672;50.250;8.312;2023-02-25T08:50:49;24.75;24.25;11.25
27143;PMS1003;14672;50.250;8.312;2023-02-25T08:53:14;43.67;36.67;15.67
27143;PMS1003;14672;50.250;8.312;2023-02-25T08:55:40;35.33;28.00;13.67
27143;PMS1003;14672;50.250;8.312;2023-02-25T08:58:06;30.33;25.00;11.00
27143;PMS1003;14672;50.250;8.312;2023-02-25T09:00:32;28.25;23.75;11.75
27143;PMS1003;14672;50.250;8.312;2023-02-25T09:02:58;31.00;26.33;12.00
27143;PMS1003;14672;50.250;8.312;2023-02-25T09:05:24;36.67;27.67;11.00
27143;PMS1003;14672;50.250;8.312;2023-02-25T09:07:50;34.25;27.75;9.75
27143;PMS1003;14672;50.250;8.312;2023-02-25T09:10:17;27.00;22.50;11.25
27143;PMS1003;14672;50.250;8.312;2023-02-25T09:12:43;30.50;25.75;14.25
27143;PMS1003;14672;50.250;8.312;2023-02-25T09:15:10;28.25;24.25;12.00
27143;PMS1003;14672;50.250;8.312;2023-02-25T09:17:38;30.50;28.75;13.00
27143;PMS1003;14672;50.250;8.312;2023-02-25T09:20:05;34.75;31.75;12.00
27143;PMS1003;14672;50.250;8.312;2023-02-25T09:22:35;30.25;25.75;11.50
27143;PMS1003;14672;50.250;8.312;2023-02-25T09:25:04;25.25;19.25;8.25
27143;PMS1003;14672;50.250;8.312;2023-02-25T09:27:31;27.25;25.00;11.00
27143;PMS1003;14672;50.250;8.312;2023-02-25T09:29:57;27.50;23.00;9.00
27143;PMS1003;14672;50.250;8.312;2023-02-25T09:32:23;26.50;26.50;10.75
27143;PMS1003;14672;50.250;8.312;2023-02-25T09:34:49;26.00;21.75;8.50
27143;PMS1003;14672;50.250;8.312;2023-02-25T09:37:16;37.00;34.33;13.33
27143;PMS1003;14672;50.250;8.312;2023-02-25T09:39:44;32.50;26.75;9.50
27143;PMS1003;14672;50.250;8.312;2023-02-25T09:45:21;26.25;25.25;9.75
27143;PMS1003;14672;50.250;8.312;2023-02-25T09:47:50;31.00;29.00;14.25
27143;PMS1003;14672;50.250;8.312;2023-02-25T09:50:24;24.25;19.00;5.25
27143;PMS1003;14672;50.250;8.312;2023-02-25T09:53:14;44.00;40.50;20.75
27143;PMS1003;14672;50.250;8.312;2023-02-25T09:55:52;59.00;47.25;22.75
27143;PMS1003;14672;50.250;8.312;2023-02-25T10:09:20;101.20;76.80;40.40
27143;PMS1003;14672;50.250;8.312;2023-02-25T10:12:14;82.80;66.40;38.40
27143;PMS1003;14672;50.250;8.312;2023-02-25T10:15:25;30.25;24.25;11.25
27143;PMS1003;14672;50.250;8.312;2023-02-25T10:21:41;23.75;21.75;10.75
27143;PMS1003;14672;50.250;8.312;2023-02-25T10:24:35;19.25;15.75;7.00
27143;PMS1003;14672;50.250;8.312;2023-02-25T10:27:26;17.75;17.25;7.75
27143;PMS1003;14672;50.250;8.312;2023-02-25T10:30:06;22.25;19.75;6.75
27143;PMS1003;14672;50.250;8.312;2023-02-25T10:32:40;16.25;16.25;7.75
27143;PMS1003;14672;50.250;8.312;2023-02-25T10:35:27;17.00;15.50;5.75
27143;PMS1003;14672;50.250;8.312;2023-02-25T10:37:57;26.00;22.00;7.00
27143;PMS1003;14672;50.250;8.312;2023-02-25T10:40:24;27.00;17.67;4.67
27143;PMS1003;14672;50.250;8.312;2023-02-25T10:42:54;20.50;17.75;7.75
27143;PMS1003;14672;50.250;8.312;2023-02-25T10:45:29;17.75;15.75;5.00
27143;PMS1003;14672;50.250;8.312;2023-02-25T10:50:36;41.75;38.50;16.00
27143;PMS1003;14672;50.250;8.312;2023-02-25T10:53:04;22.00;22.00;8.00
27143;PMS1003;14672;50.250;8.312;2023-02-25T10:55:50;19.50;16.50;6.25
27143;PMS1003;14672;50.250;8.312;2023-02-25T11:03:39;18.75;16.25;5.25
27143;PMS1003;14672;50.250;8.312;2023-02-25T11:06:27;16.00;15.75;7.00
27143;PMS1003;14672;50.250;8.312;2023-02-25T11:08:57;30.75;24.25;7.00
27143;PMS1003;14672;50.250;8.312;2023-02-25T11:11:26;43.50;39.50;20.25
27143;PMS1003;14672;50.250;8.312;2023-02-25T11:16:43;28.75;24.75;9.25
27143;PMS1003;14672;50.250;8.312;2023-02-25T11:19:18;19.25;16.25;5.25
27143;PMS1003;14672;50.250;8.312;2023-02-25T11:21:53;9.75;9.00;2.25
27143;PMS1003;14672;50.250;8.312;2023-02-25T11:24:28;7.75;7.00;1.25
27143;PMS1003;14672;50.250;8.312;2023-02-25T11:27:01;11.00;7.50;1.00
27143;PMS1003;14672;50.250;8.312;2023-02-25T11:29:38;11.50;10.50;2.50
27143;PMS1003;14672;50.250;8.312;2023-02-25T11:32:11;13.50;12.50;4.25
27143;PMS1003;14672;50.250;8.312;2023-02-25T11:34:51;14.50;13.75;4.25
27143;PMS1003;14672;50.250;8.312;2023-02-25T11:40:22;90.40;71.60;39.60
27143;PMS1003;14672;50.250;8.312;2023-02-25T11:45:33;30.67;25.67;13.33
27143;PMS1003;14672;50.250;8.312;2023-02-25T11:48:04;26.50;23.25;9.00
27143;PMS1003;14672;50.250;8.312;2023-02-25T11:51:07;19.00;19.00;7.00
27143;PMS1003;14672;50.250;8.312;2023-02-25T11:56:48;15.00;13.50;5.00
27143;PMS1003;14672;50.250;8.312;2023-02-25T12:02:08;52.25;46.75;24.00
27143;PMS1003;14672;50.250;8.312;2023-02-25T12:07:48;56.50;45.00;20.75
27143;PMS1003;14672;50.250;8.312;2023-02-25T12:31:39;26.75;23.25;9.00
27143;PMS1003;14672;50.250;8.312;2023-02-25T12:43:50;15.75;11.75;2.00
27143;PMS1003;14672;50.250;8.312;2023-02-25T12:46:47;23.75;19.25;7.50
27143;PMS1003;14672;50.250;8.312;2023-02-25T13:01:19;21.75;20.25;9.25
27143;PMS1003;14672;50.250;8.312;2023-02-25T13:04:03;11.50;11.50;4.50
27143;PMS1003;14672;50.250;8.312;2023-02-25T13:07:13;15.00;10.75;3.00
27143;PMS1003;14672;50.250;8.312;2023-02-25T13:15:58;9.00;8.75;2.50
27143;PMS1003;14672;50.250;8.312;2023-02-25T13:28:14;9.25;9.25;3.00
27143;PMS1003;14672;50.250;8.312;2023-02-25T13:31:18;8.75;8.75;3.00
27143;PMS1003;14672;50.250;8.312;2023-02-25T13:34:12;10.00;7.50;1.00
27143;PMS1003;14672;50.250;8.312;2023-02-25T13:55:07;8.00;8.00;2.50
27143;PMS1003;14672;50.250;8.312;2023-02-25T14:04:06;5.00;5.00;0.00
27143;PMS1003;14672;50.250;8.312;2023-02-25T14:16:21;6.50;6.50;1.00
27143;PMS1003;14672;50.250;8.312;2023-02-25T14:39:24;8.00;8.00;1.50
27143;PMS1003;14672;50.250;8.312;2023-02-25T14:45:01;7.00;7.00;1.00
27143;PMS1003;14672;50.250;8.312;2023-02-25T14:47:40;10.00;10.00;3.00
27143;PMS1003;14672;50.250;8.312;2023-02-25T14:50:50;11.25;8.50;1.00
27143;PMS1003;14672;50.250;8.312;2023-02-25T14:53:52;12.50;12.50;5.50
27143;PMS1003;14672;50.250;8.312;2023-02-25T15:06:30;8.50;7.00;1.00
27143;PMS1003;14672;50.250;8.312;2023-02-25T15:21:36;12.00;12.00;3.00
27143;PMS1003;14672;50.250;8.312;2023-02-25T15:24:34;10.25;9.25;3.00
27143;PMS1003;14672;50.250;8.312;2023-02-25T15:27:50;15.50;14.75;7.00
27143;PMS1003;14672;50.250;8.312;2023-02-25T15:30:03;18.75;17.25;10.50
27143;PMS1003;14672;50.250;8.312;2023-02-25T15:45:34;7.50;7.50;1.00
27143;PMS1003;14672;50.250;8.312;2023-02-25T15:55:48;9.50;9.50;2.50
27143;PMS1003;14672;50.250;8.312;2023-02-25T16:01:01;15.00;13.67;4.33
27143;PMS1003;14672;50.250;8.312;2023-02-25T16:03:51;13.00;13.00;5.00
27143;PMS1003;14672;50.250;8.312;2023-02-25T16:06:22;13.75;13.00;3.50
27143;PMS1003;14672;50.250;8.312;2023-02-25T16:09:10;14.25;13.75;5.00
27143;PMS1003;14672;50.250;8.312;2023-02-25T16:11:41;12.50;11.00;5.00
27143;PMS1003;14672;50.250;8.312;2023-02-25T16:16:56;10.50;10.50;3.00
27143;PMS1003;14672;50.250;8.312;2023-02-25T16:20:23;8.75;8.75;1.75
27143;PMS1003;14672;50.250;8.312;2023-02-25T16:22:58;9.00;9.00;3.00
27143;PMS1003;14672;50.250;8.312;2023-02-25T16:25:33;14.75;12.75;3.00
27143;PMS1003;14672;50.250;8.312;2023-02-25T16:36:10;7.00;7.00;1.00
27143;PMS1003;14672;50.250;8.312;2023-02-25T16:39:18;9.00;7.00;1.00
27143;PMS1003;14672;50.250;8.312;2023-02-25T16:41:50;9.75;8.75;1.00
27143;PMS1003;14672;50.250;8.312;2023-02-25T16:44:20;10.50;9.00;3.00
27143;PMS1003;14672;50.250;8.312;2023-02-25T16:46:54;9.50;9.00;0.75
27143;PMS1003;14672;50.250;8.312;2023-02-25T16:49:37;9.00;9.00;1.00
27143;PMS1003;14672;50.250;8.312;2023-02-25T16:52:11;7.00;7.00;1.75
27143;PMS1003;14672;50.250;8.312;2023-02-25T16:55:15;10.50;10.50;2.25
27143;PMS1003;14672;50.250;8.312;2023-02-25T17:00:37;8.25;8.25;2.25
27143;PMS1003;14672;50.250;8.312;2023-02-25T17:03:28;6.25;6.25;1.75
27143;PMS1003;14672;50.250;8.312;2023-02-25T17:06:14;9.75;8.25;2.75
27143;PMS1003;14672;50.250;8.312;2023-02-25T17:08:46;8.25;8.25;1.75
27143;PMS1003;14672;50.250;8.312;2023-02-25T17:11:15;9.25;9.25;1.75
27143;PMS1003;14672;50.250;8.312;2023-02-25T17:13:46;8.75;8.75;2.25
27143;PMS1003;14672;50.250;8.312;2023-02-25T17:16:16;8.50;8.50;2.25
27143;PMS1003;14672;50.250;8.312;2023-02-25T17:18:52;7.75;6.25;0.00
27143;PMS1003;14672;50.250;8.312;2023-02-25T17:21:24;14.50;13.00;4.25
27143;PMS1003;14672;50.250;8.312;2023-02-25T17:23:54;9.00;8.25;2.25
27143;PMS1003;14672;50.250;8.312;2023-02-25T17:26:22;9.75;9.75;3.75
27143;PMS1003;14672;50.250;8.312;2023-02-25T17:28:50;7.75;7.75;1.75
27143;PMS1003;14672;50.250;8.312;2023-02-25T17:31:21;11.00;11.00;3.75
27143;PMS1003;14672;50.250;8.312;2023-02-25T17:36:26;10.75;10.75;3.75
27143;PMS1003;14672;50.250;8.312;2023-02-25T17:39:01;9.75;9.75;3.75
27143;PMS1003;14672;50.250;8.312;2023-02-25T17:41:32;13.75;13.75;5.75
27143;PMS1003;14672;50.250;8.312;2023-02-25T17:43:59;11.75;11.75;4.00
27143;PMS1003;14672;50.250;8.312;2023-02-25T17:46:30;16.25;11.75;3.75
27143;PMS1003;14672;50.250;8.312;2023-02-25T17:49:03;11.00;9.75;3.75
27143;PMS1003;14672;50.250;8.312;2023-02-25T17:51:51;10.25;9.75;2.50
27143;PMS1003;14672;50.250;8.312;2023-02-25T17:54:31;11.75;9.75;1.75
27143;PMS1003;14672;50.250;8.312;2023-02-25T17:57:01;12.25;10.25;1.75
27143;PMS1003;14672;50.250;8.312;2023-02-25T17:59:41;13.75;11.25;3.75
27143;PMS1003;14672;50.250;8.312;2023-02-25T18:07:38;13.00;10.00;4.00
27143;PMS1003;14672;50.250;8.312;2023-02-25T18:10:52;14.00;13.75;3.00
27143;PMS1003;14672;50.250;8.312;2023-02-25T18:12:55;17.00;17.00;8.00
27143;PMS1003;14672;50.250;8.312;2023-02-25T18:15:28;12.75;11.75;5.75
27143;PMS1003;14672;50.250;8.312;2023-02-25T18:17:57;11.00;11.00;3.75
27143;PMS1003;14672;50.250;8.312;2023-02-25T18:20:36;10.00;10.00;2.00
27143;PMS1003;14672;50.250;8.312;2023-02-25T18:23:15;10.00;10.00;4.00
27143;PMS1003;14672;50.250;8.312;2023-02-25T18:26:08;10.00;10.00;3.50
27143;PMS1003;14672;50.250;8.312;2023-02-25T18:28:41;10.00;8.00;3.00
27143;PMS1003;14672;50.250;8.312;2023-02-25T18:31:06;14.00;12.00;4.00
27143;PMS1003;14672;50.250;8.312;2023-02-25T18:33:33;10.50;10.50;4.00
27143;PMS1003;14672;50.250;8.312;2023-02-25T18:35:59;12.00;12.00;4.00
27143;PMS1003;14672;50.250;8.312;2023-02-25T18:38:26;16.00;16.00;8.00
27143;PMS1003;14672;50.250;8.312;2023-02-25T18:40:55;14.50;13.00;4.50
27143;PMS1003;14672;50.250;8.312;2023-02-25T18:43:22;14.00;13.50;4.50